Pagrindinis puslapis
METAR-TAF:

METAR-TAF

Oro uostai :

Asahikava, Japonija

platuma: 43-40N, ilguma: 142-27E, Aukštis: 208 m

Dabartinis oras

Ataskaita buvo paskelbta 4 valandos ir 5 minutes, ne 11:00 UTC
Vėjas 9 kt iš Pietų/Pietvakarių
Temperatūra 11°C
Drėgmė 66%
Slėgis 1020 hPa
Matomumas 10 km arba daugiau
Mažai debesys ne aukštis 3000 ft
Išsisklaidę debesys ne aukštis 5000 ft
Su prošvaistėmis

METAR: RJEC 121100Z 20009KT 9999 FEW030 SCT050 BKN/// 11/05 Q1020

Laikas: 00:05 (15:05 UTC)

Prognozė

Ataskaita buvo paskelbta 4 valandos ir 0 minutes, ne 11:05 UTC
Prognozė galioja nuo 12 metu 12 UTC su 13 metu 18 UTC
Vėjas 15 kt iš Pietų
Matomumas 10 km arba daugiau
Mažai debesys ne aukštis 2000 ft
Su prošvaistėmis ne aukštis 4000 ft

TAF: RJEC 121105Z 1212/1318 18015KT 9999 FEW020 BKN040

Orai ataskaitas ir orų prognozės (METAR, TAF).

turimą stotys yra geltonos ir raudonos taškus žemėlapyje.

Perkelti pele per norėdami pamatyti stoties vardą.

Tada spustelėkite, norėdami matyti oro stebėjimo ir prognozės.

Norėdami pakeisti žemėlapį: spustelėkite ant žalios mygtukų su juodo kryžiaus žemyn,; žalią mygtuką su brūkšneliu, jei norite nutolinti; arba žalių rodyklių gretimoms žemėlapius.


METAR-TAF: